createdAt,value
2022-11-24T12:01:10.858Z,32.55
2022-11-24T12:04:43.734Z,28.63
2022-11-24T12:08:20.677Z,24.50
2022-11-24T12:11:34.953Z,26.95
2022-11-24T12:14:58.246Z,26.98
2022-11-24T12:18:00.030Z,26.13
2022-11-24T12:21:26.273Z,33.33
2022-11-24T12:24:31.321Z,32.22
2022-11-24T12:27:50.366Z,27.60
2022-11-24T12:31:05.921Z,28.77
2022-11-24T12:34:20.039Z,26.30
2022-11-24T12:37:49.200Z,39.45
2022-11-24T12:41:39.581Z,33.58
2022-11-24T12:44:43.863Z,28.63
2022-11-24T12:47:46.690Z,28.67
2022-11-24T12:50:52.026Z,31.05
2022-11-24T12:53:58.041Z,35.00
2022-11-24T12:57:10.275Z,33.53
2022-11-24T13:00:29.639Z,36.50
2022-11-24T13:03:37.172Z,36.65
2022-11-24T13:06:49.391Z,45.40
2022-11-24T13:10:40.070Z,46.88
2022-11-24T13:17:43.523Z,43.05
2022-11-24T13:20:52.058Z,41.22
2022-11-24T13:24:02.644Z,43.25
2022-11-24T13:27:16.431Z,44.75
2022-11-24T13:30:33.712Z,33.97
2022-11-24T13:33:36.303Z,48.03
2022-11-24T13:36:53.319Z,39.50
2022-11-24T13:40:00.270Z,36.28
2022-11-24T13:43:05.018Z,31.17
2022-11-24T13:46:10.074Z,31.67
2022-11-24T13:49:20.877Z,27.98
2022-11-24T13:52:49.531Z,29.88
2022-11-24T13:56:03.351Z,33.40
2022-11-24T13:59:19.182Z,33.75
2022-11-24T14:02:23.734Z,75.13
2022-11-24T14:05:39.339Z,49.58
2022-11-24T14:08:46.547Z,30.92
2022-11-24T14:12:08.576Z,27.98
2022-11-24T14:15:23.915Z,33.90
2022-11-24T14:18:26.260Z,38.95
2022-11-24T14:21:35.903Z,38.13
2022-11-24T14:24:41.533Z,29.20
2022-11-24T14:27:46.593Z,31.63
2022-11-24T14:30:48.682Z,31.45
2022-11-24T14:34:06.772Z,33.27
2022-11-24T14:37:12.067Z,29.23
2022-11-24T14:40:47.099Z,31.02
2022-11-24T14:43:50.329Z,32.10
2022-11-24T14:47:02.862Z,40.97
2022-11-24T14:50:19.312Z,40.78
2022-11-24T14:53:26.315Z,36.22
2022-11-24T14:56:40.006Z,31.23
2022-11-24T14:59:42.053Z,32.45
2022-11-24T15:02:55.665Z,35.63
2022-11-24T15:06:03.393Z,36.55
2022-11-24T15:09:07.019Z,34.78
2022-11-24T15:12:29.361Z,36.03
2022-11-24T15:15:37.573Z,30.50
2022-11-24T15:18:50.347Z,28.20
2022-11-24T15:21:53.615Z,26.15
2022-11-24T15:24:55.586Z,28.92
2022-11-24T15:28:01.389Z,22.52
2022-11-24T15:31:06.955Z,32.15
2022-11-24T15:34:13.792Z,27.92
2022-11-24T15:37:15.730Z,31.60
2022-11-24T15:40:18.655Z,34.15
2022-11-24T15:46:43.205Z,28.75
2022-11-24T15:49:47.008Z,28.15
2022-11-24T15:52:52.246Z,34.33
2022-11-24T15:55:56.773Z,30.73
2022-11-24T15:59:00.051Z,44.97
2022-11-24T16:02:01.908Z,29.85
2022-11-24T16:05:08.348Z,25.70
2022-11-24T16:08:17.898Z,29.10
2022-11-24T16:11:22.919Z,35.65
2022-11-24T16:14:26.610Z,30.52
2022-11-24T16:17:32.436Z,28.60
2022-11-24T16:20:37.719Z,26.98
2022-11-24T16:23:41.049Z,26.83
2022-11-24T16:26:43.859Z,27.90
2022-11-24T16:29:46.777Z,32.50
2022-11-24T16:33:11.004Z,33.47
2022-11-24T16:36:17.344Z,25.27
2022-11-24T16:42:40.127Z,27.60
2022-11-24T16:45:45.471Z,24.13
2022-11-24T16:48:49.887Z,20.40
2022-11-24T16:51:55.170Z,22.95
2022-11-24T16:54:59.012Z,23.05
2022-11-24T16:58:05.040Z,19.52
2022-11-24T17:01:13.989Z,19.83
2022-11-24T17:04:19.376Z,29.05
2022-11-24T17:07:25.579Z,20.13
2022-11-24T17:10:28.040Z,18.75
2022-11-24T17:13:33.858Z,22.00
2022-11-24T17:16:43.925Z,19.73
2022-11-24T17:19:48.847Z,17.80
2022-11-24T17:22:56.743Z,18.55
2022-11-24T17:26:05.823Z,15.80
2022-11-24T17:29:10.899Z,19.65
2022-11-24T17:32:15.194Z,16.20
2022-11-24T17:35:18.848Z,16.13
2022-11-24T17:38:31.254Z,31.92
2022-11-24T17:41:35.398Z,26.80
2022-11-24T17:44:37.913Z,30.40
2022-11-24T17:47:42.785Z,22.63
2022-11-24T17:50:45.953Z,20.98
2022-11-24T17:53:49.949Z,25.48
2022-11-24T17:56:54.726Z,20.15
2022-11-24T17:59:57.932Z,40.08
2022-11-24T18:03:01.347Z,26.33
2022-11-24T18:06:15.226Z,23.58
2022-11-24T18:09:18.621Z,16.90
2022-11-24T18:12:24.044Z,16.15
2022-11-24T18:15:26.655Z,16.63
2022-11-24T18:18:29.080Z,14.02
2022-11-24T18:24:34.314Z,11.55
2022-11-24T18:33:44.031Z,13.23
2022-11-24T18:36:52.709Z,13.00
2022-11-24T18:39:57.525Z,19.05
2022-11-24T18:43:03.056Z,16.95
2022-11-24T18:46:14.625Z,22.27
2022-11-24T18:49:16.794Z,20.83
2022-11-24T18:52:21.355Z,16.48
2022-11-24T18:55:24.847Z,17.27
2022-11-24T18:58:35.979Z,16.60
2022-11-24T19:01:39.906Z,22.63
2022-11-24T19:07:50.344Z,15.93
2022-11-24T19:10:55.350Z,14.80
2022-11-24T19:14:01.258Z,13.05
2022-11-24T19:17:07.813Z,12.68
2022-11-24T19:20:14.497Z,13.65
2022-11-24T19:23:19.998Z,14.02
2022-11-24T19:26:23.924Z,12.45
2022-11-24T19:29:28.428Z,13.48
2022-11-24T19:32:33.159Z,14.85
2022-11-24T19:35:36.993Z,15.07
2022-11-24T19:38:41.204Z,16.13
2022-11-24T19:41:47.561Z,13.55
2022-11-24T19:44:56.422Z,16.42
2022-11-24T19:47:59.301Z,12.57
2022-11-24T19:51:08.344Z,15.90
2022-11-24T19:54:14.496Z,14.60
2022-11-24T19:57:17.404Z,15.80
2022-11-24T20:00:30.673Z,15.13
2022-11-24T20:03:36.261Z,13.88
2022-11-24T20:06:43.235Z,15.45
2022-11-24T20:09:45.516Z,13.27
2022-11-24T20:12:48.146Z,15.57
2022-11-24T20:19:07.893Z,14.43
2022-11-24T20:22:10.746Z,13.13
2022-11-24T20:25:13.613Z,15.65
2022-11-24T20:28:20.491Z,14.98
2022-11-24T20:31:30.792Z,15.43
2022-11-24T20:34:35.901Z,12.43
2022-11-24T20:37:39.119Z,15.43
2022-11-24T20:43:47.022Z,16.33
2022-11-24T20:46:49.935Z,15.55
2022-11-24T20:49:53.465Z,14.15
2022-11-24T20:52:59.714Z,13.77
2022-11-24T20:56:13.528Z,13.52
2022-11-24T20:59:24.650Z,13.10
2022-11-24T21:02:28.177Z,16.88
2022-11-24T21:05:30.777Z,15.90
2022-11-24T21:08:34.377Z,15.98
2022-11-24T21:11:40.433Z,14.73
2022-11-24T21:14:42.285Z,15.23
2022-11-24T21:17:44.673Z,14.98
2022-11-24T21:20:47.718Z,15.30
2022-11-24T21:23:49.717Z,16.00
2022-11-24T21:26:52.981Z,14.63
2022-11-24T21:29:55.107Z,14.98
2022-11-24T21:32:56.975Z,13.55
2022-11-24T21:36:06.108Z,13.73
2022-11-24T21:39:14.998Z,12.45
2022-11-24T21:42:16.910Z,14.07
2022-11-24T21:45:18.707Z,13.05
2022-11-24T21:48:20.671Z,14.85
2022-11-24T21:51:22.575Z,15.10
2022-11-24T21:54:24.567Z,15.57
2022-11-24T21:57:28.149Z,13.43
2022-11-24T22:00:30.010Z,14.13
2022-11-24T22:03:32.886Z,16.60
2022-11-24T22:06:34.981Z,15.43
2022-11-24T22:09:36.823Z,16.10
2022-11-24T22:12:38.669Z,15.30
2022-11-24T22:15:40.618Z,16.55
2022-11-24T22:18:43.778Z,16.08
2022-11-24T22:21:45.751Z,14.35
2022-11-24T22:24:47.540Z,15.30
2022-11-24T22:27:49.956Z,15.18
2022-11-24T22:30:51.911Z,14.95
2022-11-24T22:33:54.618Z,15.85
2022-11-24T22:36:56.556Z,14.50
2022-11-24T22:39:58.544Z,13.85
2022-11-24T22:43:00.449Z,14.68
2022-11-24T22:46:07.371Z,17.90
2022-11-24T22:49:10.094Z,15.70
2022-11-24T22:52:14.103Z,15.77
2022-11-24T22:55:16.498Z,16.25
2022-11-24T22:58:18.314Z,16.30
2022-11-24T23:01:22.745Z,17.83
2022-11-24T23:04:24.724Z,16.02
2022-11-24T23:07:26.736Z,17.00
2022-11-24T23:10:28.681Z,15.70
2022-11-24T23:13:30.862Z,16.42
2022-11-24T23:16:32.765Z,16.55
2022-11-24T23:19:34.697Z,15.23
2022-11-24T23:22:36.576Z,17.20
2022-11-24T23:25:38.416Z,15.93
2022-11-24T23:28:40.842Z,16.00
2022-11-24T23:31:42.805Z,15.52
2022-11-24T23:34:44.662Z,19.80
2022-11-24T23:38:06.921Z,15.73
2022-11-24T23:41:15.454Z,20.35
2022-11-24T23:44:17.321Z,14.75
2022-11-24T23:47:19.192Z,14.80
2022-11-24T23:50:21.123Z,19.17
2022-11-24T23:53:23.318Z,15.85
2022-11-24T23:56:33.249Z,17.60
2022-11-24T23:59:35.346Z,17.30
